Nikolski, Alaska
Current Conditions -  °F | °C
As of 2:11 AM on Wednesday 22 Oct 2014 (Local Time) from PADU Reporting Station
Overcast Overcast  
Wind Chill: 28°   Ceiling: 2600
Heat Index: 39°   Visibility: 10mi
Dew Point: 32°   Wind: 25mph
Humidity: 75%   Direction: 320°NW
Pressure: 29.73"   Gusts: 41mph
Location:  52.95°N, 168.85°W
Report Text: PADU 221011Z AUTO 32022G36KT 10SM FEW014 OVC026 04/00 A2973 RMK AO2 PK WND 33036/1004 RAE11 PNO $
Loading
Personal Weather Stations






























Interactive Weather Map
Tropical Storm Tracking
New forecast layout! Learn more

10-Day Weather Forecast

Advertisements
Track Severe Weather on mobile